sensor_id;sensor_type;location;lat;lon;timestamp;temperature;humidity
52979;DHT22;51106;53.186;6.598;2022-07-29T00:00:19;14.50;99.90
52979;DHT22;51106;53.186;6.598;2022-07-29T00:02:21;14.50;99.90
52979;DHT22;51106;53.186;6.598;2022-07-29T00:04:26;15.00;99.90
52979;DHT22;51106;53.186;6.598;2022-07-29T00:06:28;14.50;99.90
52979;DHT22;51106;53.186;6.598;2022-07-29T00:08:31;14.90;99.90
52979;DHT22;51106;53.186;6.598;2022-07-29T00:10:33;14.50;99.90
52979;DHT22;51106;53.186;6.598;2022-07-29T00:12:35;14.60;99.90
52979;DHT22;51106;53.186;6.598;2022-07-29T00:14:38;14.60;99.90
52979;DHT22;51106;53.186;6.598;2022-07-29T00:16:43;14.60;99.90
52979;DHT22;51106;53.186;6.598;2022-07-29T00:18:46;14.60;99.90
52979;DHT22;51106;53.186;6.598;2022-07-29T00:20:51;14.70;99.90
52979;DHT22;51106;53.186;6.598;2022-07-29T00:22:53;14.60;99.90
52979;DHT22;51106;53.186;6.598;2022-07-29T00:24:55;14.60;99.90
52979;DHT22;51106;53.186;6.598;2022-07-29T00:26:57;14.60;99.90
52979;DHT22;51106;53.186;6.598;2022-07-29T00:29:00;14.60;99.90
52979;DHT22;51106;53.186;6.598;2022-07-29T00:31:23;14.70;99.90
52979;DHT22;51106;53.186;6.598;2022-07-29T00:33:25;14.60;99.90
52979;DHT22;51106;53.186;6.598;2022-07-29T00:35:27;14.60;99.90
52979;DHT22;51106;53.186;6.598;2022-07-29T00:37:48;14.60;99.90
52979;DHT22;51106;53.186;6.598;2022-07-29T00:39:50;14.70;99.90
52979;DHT22;51106;53.186;6.598;2022-07-29T00:41:52;14.60;99.90
52979;DHT22;51106;53.186;6.598;2022-07-29T00:43:54;14.60;99.90
52979;DHT22;51106;53.186;6.598;2022-07-29T00:45:59;14.60;99.90
52979;DHT22;51106;53.186;6.598;2022-07-29T00:48:02;14.70;99.90
52979;DHT22;51106;53.186;6.598;2022-07-29T00:50:06;14.70;99.90
52979;DHT22;51106;53.186;6.598;2022-07-29T00:52:10;14.60;99.90
52979;DHT22;51106;53.186;6.598;2022-07-29T00:54:12;14.70;99.90
52979;DHT22;51106;53.186;6.598;2022-07-29T00:56:15;14.60;99.90
52979;DHT22;51106;53.186;6.598;2022-07-29T00:58:17;14.60;99.90
52979;DHT22;51106;53.186;6.598;2022-07-29T01:00:25;14.60;99.90
52979;DHT22;51106;53.186;6.598;2022-07-29T01:02:28;14.80;99.90
52979;DHT22;51106;53.186;6.598;2022-07-29T01:04:31;14.60;99.90
52979;DHT22;51106;53.186;6.598;2022-07-29T01:06:33;14.60;99.90
52979;DHT22;51106;53.186;6.598;2022-07-29T01:08:36;14.60;99.90
52979;DHT22;51106;53.186;6.598;2022-07-29T01:10:39;14.60;99.90
52979;DHT22;51106;53.186;6.598;2022-07-29T01:12:44;14.60;99.90
52979;DHT22;51106;53.186;6.598;2022-07-29T01:14:49;14.60;99.90
52979;DHT22;51106;53.186;6.598;2022-07-29T01:17:00;14.60;99.90
52979;DHT22;51106;53.186;6.598;2022-07-29T01:19:26;14.70;99.90
52979;DHT22;51106;53.186;6.598;2022-07-29T01:21:51;14.60;99.90
52979;DHT22;51106;53.186;6.598;2022-07-29T01:26:22;14.60;99.90
52979;DHT22;51106;53.186;6.598;2022-07-29T01:30:49;14.60;99.90
52979;DHT22;51106;53.186;6.598;2022-07-29T01:32:58;14.60;99.90
52979;DHT22;51106;53.186;6.598;2022-07-29T01:35:18;14.60;99.90
52979;DHT22;51106;53.186;6.598;2022-07-29T01:37:28;14.60;99.90
52979;DHT22;51106;53.186;6.598;2022-07-29T01:39:34;14.60;99.90
52979;DHT22;51106;53.186;6.598;2022-07-29T01:41:42;14.60;99.90
52979;DHT22;51106;53.186;6.598;2022-07-29T01:43:54;15.20;99.90
52979;DHT22;51106;53.186;6.598;2022-07-29T01:46:01;14.60;99.90
52979;DHT22;51106;53.186;6.598;2022-07-29T01:48:14;14.60;99.90
52979;DHT22;51106;53.186;6.598;2022-07-29T01:50:18;14.60;99.90
52979;DHT22;51106;53.186;6.598;2022-07-29T01:52:28;14.60;99.90
52979;DHT22;51106;53.186;6.598;2022-07-29T01:54:45;14.60;99.90
52979;DHT22;51106;53.186;6.598;2022-07-29T01:56:50;14.60;99.90
52979;DHT22;51106;53.186;6.598;2022-07-29T01:58:55;14.60;99.90
52979;DHT22;51106;53.186;6.598;2022-07-29T02:00:59;14.60;99.90
52979;DHT22;51106;53.186;6.598;2022-07-29T02:03:05;14.60;99.90
52979;DHT22;51106;53.186;6.598;2022-07-29T02:05:15;14.70;99.90
52979;DHT22;51106;53.186;6.598;2022-07-29T02:07:21;14.70;99.90
52979;DHT22;51106;53.186;6.598;2022-07-29T02:09:28;14.70;99.90
52979;DHT22;51106;53.186;6.598;2022-07-29T02:11:33;14.70;99.90
52979;DHT22;51106;53.186;6.598;2022-07-29T02:13:36;14.70;99.90
52979;DHT22;51106;53.186;6.598;2022-07-29T02:15:40;14.70;99.90
52979;DHT22;51106;53.186;6.598;2022-07-29T02:17:48;14.70;99.90
52979;DHT22;51106;53.186;6.598;2022-07-29T02:19:56;14.70;99.90
52979;DHT22;51106;53.186;6.598;2022-07-29T02:22:00;14.70;99.90
52979;DHT22;51106;53.186;6.598;2022-07-29T02:24:03;14.70;99.90
52979;DHT22;51106;53.186;6.598;2022-07-29T02:26:07;14.70;99.90
52979;DHT22;51106;53.186;6.598;2022-07-29T02:28:10;14.70;99.90
52979;DHT22;51106;53.186;6.598;2022-07-29T02:30:13;14.70;99.90
52979;DHT22;51106;53.186;6.598;2022-07-29T02:32:19;14.80;99.90
52979;DHT22;51106;53.186;6.598;2022-07-29T02:34:24;14.70;99.90
52979;DHT22;51106;53.186;6.598;2022-07-29T02:36:28;14.70;99.90
52979;DHT22;51106;53.186;6.598;2022-07-29T02:38:31;14.70;99.90
52979;DHT22;51106;53.186;6.598;2022-07-29T02:40:53;15.00;99.90
52979;DHT22;51106;53.186;6.598;2022-07-29T02:42:57;14.80;99.90
52979;DHT22;51106;53.186;6.598;2022-07-29T02:44:59;14.80;99.90
52979;DHT22;51106;53.186;6.598;2022-07-29T02:54:08;14.80;99.90
52979;DHT22;51106;53.186;6.598;2022-07-29T02:56:13;14.80;99.90
52979;DHT22;51106;53.186;6.598;2022-07-29T02:58:28;14.80;99.90
52979;DHT22;51106;53.186;6.598;2022-07-29T03:00:33;14.70;99.90
52979;DHT22;51106;53.186;6.598;2022-07-29T03:02:40;14.70;99.90
52979;DHT22;51106;53.186;6.598;2022-07-29T03:04:43;14.80;99.90
52979;DHT22;51106;53.186;6.598;2022-07-29T03:06:46;14.70;99.90
52979;DHT22;51106;53.186;6.598;2022-07-29T03:08:51;14.70;99.90
52979;DHT22;51106;53.186;6.598;2022-07-29T03:11:00;14.80;99.90
52979;DHT22;51106;53.186;6.598;2022-07-29T03:13:04;14.80;99.90
52979;DHT22;51106;53.186;6.598;2022-07-29T03:15:07;14.70;99.90
52979;DHT22;51106;53.186;6.598;2022-07-29T03:17:10;14.70;99.90
52979;DHT22;51106;53.186;6.598;2022-07-29T03:19:16;14.80;99.90
52979;DHT22;51106;53.186;6.598;2022-07-29T03:21:18;14.70;99.90
52979;DHT22;51106;53.186;6.598;2022-07-29T03:23:22;14.70;99.90
52979;DHT22;51106;53.186;6.598;2022-07-29T03:25:25;14.80;99.90
52979;DHT22;51106;53.186;6.598;2022-07-29T03:27:29;14.70;99.90
52979;DHT22;51106;53.186;6.598;2022-07-29T03:29:31;14.70;99.90
52979;DHT22;51106;53.186;6.598;2022-07-29T03:31:35;14.80;99.90
52979;DHT22;51106;53.186;6.598;2022-07-29T03:33:38;14.80;99.90
52979;DHT22;51106;53.186;6.598;2022-07-29T03:35:41;14.70;99.90
52979;DHT22;51106;53.186;6.598;2022-07-29T03:37:45;14.70;99.90
52979;DHT22;51106;53.186;6.598;2022-07-29T03:39:47;14.80;99.90
52979;DHT22;51106;53.186;6.598;2022-07-29T03:41:52;14.80;99.90
52979;DHT22;51106;53.186;6.598;2022-07-29T03:43:56;14.70;99.90
52979;DHT22;51106;53.186;6.598;2022-07-29T03:46:00;14.70;99.90
52979;DHT22;51106;53.186;6.598;2022-07-29T03:48:14;14.80;99.90
52979;DHT22;51106;53.186;6.598;2022-07-29T03:50:17;14.70;99.90
52979;DHT22;51106;53.186;6.598;2022-07-29T03:52:21;14.70;99.90
52979;DHT22;51106;53.186;6.598;2022-07-29T03:54:23;14.70;99.90
52979;DHT22;51106;53.186;6.598;2022-07-29T03:56:27;14.70;99.90
52979;DHT22;51106;53.186;6.598;2022-07-29T03:58:30;14.70;99.90
52979;DHT22;51106;53.186;6.598;2022-07-29T04:00:33;14.70;99.90
52979;DHT22;51106;53.186;6.598;2022-07-29T04:02:38;14.80;99.90
52979;DHT22;51106;53.186;6.598;2022-07-29T04:04:41;15.00;99.90
52979;DHT22;51106;53.186;6.598;2022-07-29T04:06:45;14.70;99.90
52979;DHT22;51106;53.186;6.598;2022-07-29T04:08:49;14.70;99.90
52979;DHT22;51106;53.186;6.598;2022-07-29T04:10:51;14.70;99.90
52979;DHT22;51106;53.186;6.598;2022-07-29T04:12:54;14.70;99.90
52979;DHT22;51106;53.186;6.598;2022-07-29T04:14:56;15.10;99.90
52979;DHT22;51106;53.186;6.598;2022-07-29T04:16:58;14.70;99.90
52979;DHT22;51106;53.186;6.598;2022-07-29T04:19:00;14.80;99.90
52979;DHT22;51106;53.186;6.598;2022-07-29T04:21:02;14.70;99.90
52979;DHT22;51106;53.186;6.598;2022-07-29T04:23:05;14.70;99.90
52979;DHT22;51106;53.186;6.598;2022-07-29T04:25:08;14.70;99.90
52979;DHT22;51106;53.186;6.598;2022-07-29T04:27:10;14.70;99.90
52979;DHT22;51106;53.186;6.598;2022-07-29T04:29:12;14.80;99.90
52979;DHT22;51106;53.186;6.598;2022-07-29T04:31:18;14.80;99.90
52979;DHT22;51106;53.186;6.598;2022-07-29T04:33:26;14.80;99.90
52979;DHT22;51106;53.186;6.598;2022-07-29T04:35:30;14.80;99.90
52979;DHT22;51106;53.186;6.598;2022-07-29T04:37:40;14.80;99.90
52979;DHT22;51106;53.186;6.598;2022-07-29T04:39:42;14.80;99.90
52979;DHT22;51106;53.186;6.598;2022-07-29T04:41:44;14.80;99.90
52979;DHT22;51106;53.186;6.598;2022-07-29T04:43:47;14.80;99.90
52979;DHT22;51106;53.186;6.598;2022-07-29T04:45:49;14.90;99.90
52979;DHT22;51106;53.186;6.598;2022-07-29T04:47:51;14.80;99.90
52979;DHT22;51106;53.186;6.598;2022-07-29T04:49:53;14.80;99.90
52979;DHT22;51106;53.186;6.598;2022-07-29T04:51:58;14.90;99.90
52979;DHT22;51106;53.186;6.598;2022-07-29T04:54:00;14.90;99.90
52979;DHT22;51106;53.186;6.598;2022-07-29T04:56:02;14.90;99.90
52979;DHT22;51106;53.186;6.598;2022-07-29T04:58:05;14.90;99.90
52979;DHT22;51106;53.186;6.598;2022-07-29T05:00:10;14.90;99.90
52979;DHT22;51106;53.186;6.598;2022-07-29T05:02:12;14.90;99.90
52979;DHT22;51106;53.186;6.598;2022-07-29T05:04:14;14.90;99.90
52979;DHT22;51106;53.186;6.598;2022-07-29T05:06:17;14.90;99.90
52979;DHT22;51106;53.186;6.598;2022-07-29T05:08:19;14.90;99.90
52979;DHT22;51106;53.186;6.598;2022-07-29T05:10:22;14.90;99.90
52979;DHT22;51106;53.186;6.598;2022-07-29T05:12:24;15.00;99.90
52979;DHT22;51106;53.186;6.598;2022-07-29T05:14:26;15.00;99.90
52979;DHT22;51106;53.186;6.598;2022-07-29T05:16:29;15.00;99.90
52979;DHT22;51106;53.186;6.598;2022-07-29T05:18:31;15.00;99.90
52979;DHT22;51106;53.186;6.598;2022-07-29T05:20:36;15.00;99.90
52979;DHT22;51106;53.186;6.598;2022-07-29T05:22:38;15.00;99.90
52979;DHT22;51106;53.186;6.598;2022-07-29T05:24:40;15.10;99.90
52979;DHT22;51106;53.186;6.598;2022-07-29T05:26:43;15.10;99.90
52979;DHT22;51106;53.186;6.598;2022-07-29T05:28:45;15.10;99.90
52979;DHT22;51106;53.186;6.598;2022-07-29T05:30:47;15.10;99.90
52979;DHT22;51106;53.186;6.598;2022-07-29T05:32:53;15.10;99.90
52979;DHT22;51106;53.186;6.598;2022-07-29T05:34:55;15.50;99.90
52979;DHT22;51106;53.186;6.598;2022-07-29T05:36:57;15.20;99.90
52979;DHT22;51106;53.186;6.598;2022-07-29T05:39:00;15.20;99.90
52979;DHT22;51106;53.186;6.598;2022-07-29T05:41:03;15.30;99.90
52979;DHT22;51106;53.186;6.598;2022-07-29T05:43:05;15.30;99.90
52979;DHT22;51106;53.186;6.598;2022-07-29T05:45:08;15.30;99.90
52979;DHT22;51106;53.186;6.598;2022-07-29T05:47:10;15.40;99.90
52979;DHT22;51106;53.186;6.598;2022-07-29T05:49:13;15.40;99.90
52979;DHT22;51106;53.186;6.598;2022-07-29T05:51:28;15.50;99.90
52979;DHT22;51106;53.186;6.598;2022-07-29T05:53:31;15.40;99.90
52979;DHT22;51106;53.186;6.598;2022-07-29T05:55:33;16.10;99.90
52979;DHT22;51106;53.186;6.598;2022-07-29T05:57:39;15.50;99.90
52979;DHT22;51106;53.186;6.598;2022-07-29T05:59:41;15.60;99.90
52979;DHT22;51106;53.186;6.598;2022-07-29T06:01:43;15.60;99.90
52979;DHT22;51106;53.186;6.598;2022-07-29T06:03:45;15.60;99.90
52979;DHT22;51106;53.186;6.598;2022-07-29T06:05:47;15.80;99.90
52979;DHT22;51106;53.186;6.598;2022-07-29T06:07:49;15.70;99.90
52979;DHT22;51106;53.186;6.598;2022-07-29T06:09:52;15.70;99.90
52979;DHT22;51106;53.186;6.598;2022-07-29T06:11:54;15.70;99.90
52979;DHT22;51106;53.186;6.598;2022-07-29T06:13:56;15.80;99.90
52979;DHT22;51106;53.186;6.598;2022-07-29T06:15:58;15.80;99.90
52979;DHT22;51106;53.186;6.598;2022-07-29T06:18:01;15.80;99.90
52979;DHT22;51106;53.186;6.598;2022-07-29T06:20:04;15.80;99.90
52979;DHT22;51106;53.186;6.598;2022-07-29T06:22:08;15.90;99.90
52979;DHT22;51106;53.186;6.598;2022-07-29T06:24:11;15.90;99.90
52979;DHT22;51106;53.186;6.598;2022-07-29T06:26:14;16.00;99.90
52979;DHT22;51106;53.186;6.598;2022-07-29T06:28:16;16.10;99.90
52979;DHT22;51106;53.186;6.598;2022-07-29T06:30:18;16.10;99.90
52979;DHT22;51106;53.186;6.598;2022-07-29T06:32:21;16.20;99.90
52979;DHT22;51106;53.186;6.598;2022-07-29T06:34:28;16.20;99.90
52979;DHT22;51106;53.186;6.598;2022-07-29T06:36:35;16.30;99.90
52979;DHT22;51106;53.186;6.598;2022-07-29T06:38:38;16.30;99.90
52979;DHT22;51106;53.186;6.598;2022-07-29T06:40:46;16.30;99.90
52979;DHT22;51106;53.186;6.598;2022-07-29T06:43:06;16.40;99.90
52979;DHT22;51106;53.186;6.598;2022-07-29T06:45:09;16.90;99.90
52979;DHT22;51106;53.186;6.598;2022-07-29T06:47:12;16.50;99.90
52979;DHT22;51106;53.186;6.598;2022-07-29T06:49:14;16.50;99.90
52979;DHT22;51106;53.186;6.598;2022-07-29T06:51:16;16.50;99.90
52979;DHT22;51106;53.186;6.598;2022-07-29T06:53:24;16.60;99.90
52979;DHT22;51106;53.186;6.598;2022-07-29T06:55:26;16.60;99.90
52979;DHT22;51106;53.186;6.598;2022-07-29T06:57:28;16.70;99.90
52979;DHT22;51106;53.186;6.598;2022-07-29T06:59:30;16.70;99.90
52979;DHT22;51106;53.186;6.598;2022-07-29T07:01:38;16.80;99.90
52979;DHT22;51106;53.186;6.598;2022-07-29T07:03:40;16.90;99.90
52979;DHT22;51106;53.186;6.598;2022-07-29T07:05:46;17.00;99.90
52979;DHT22;51106;53.186;6.598;2022-07-29T07:07:51;17.20;99.90
52979;DHT22;51106;53.186;6.598;2022-07-29T07:09:53;17.10;99.90
52979;DHT22;51106;53.186;6.598;2022-07-29T07:11:55;17.20;99.90
52979;DHT22;51106;53.186;6.598;2022-07-29T07:13:58;17.30;99.90
52979;DHT22;51106;53.186;6.598;2022-07-29T07:16:04;17.20;99.90
52979;DHT22;51106;53.186;6.598;2022-07-29T07:18:07;17.30;99.70
52979;DHT22;51106;53.186;6.598;2022-07-29T07:20:09;17.30;99.50
52979;DHT22;51106;53.186;6.598;2022-07-29T07:22:11;17.30;99.20
52979;DHT22;51106;53.186;6.598;2022-07-29T07:24:13;17.30;99.10
52979;DHT22;51106;53.186;6.598;2022-07-29T07:26:16;17.30;99.30
52979;DHT22;51106;53.186;6.598;2022-07-29T07:28:18;17.30;99.30
52979;DHT22;51106;53.186;6.598;2022-07-29T07:30:25;17.40;99.10
52979;DHT22;51106;53.186;6.598;2022-07-29T07:32:28;17.40;98.90
52979;DHT22;51106;53.186;6.598;2022-07-29T07:34:31;17.50;98.80
52979;DHT22;51106;53.186;6.598;2022-07-29T07:36:33;17.50;98.30
52979;DHT22;51106;53.186;6.598;2022-07-29T07:38:35;17.50;98.20
52979;DHT22;51106;53.186;6.598;2022-07-29T07:40:48;17.60;98.10
52979;DHT22;51106;53.186;6.598;2022-07-29T07:42:50;17.60;98.10
52979;DHT22;51106;53.186;6.598;2022-07-29T07:44:52;17.60;98.00
52979;DHT22;51106;53.186;6.598;2022-07-29T07:47:15;17.70;97.90
52979;DHT22;51106;53.186;6.598;2022-07-29T07:49:23;17.70;97.60
52979;DHT22;51106;53.186;6.598;2022-07-29T07:51:25;17.80;97.30
52979;DHT22;51106;53.186;6.598;2022-07-29T07:53:27;17.90;97.00
52979;DHT22;51106;53.186;6.598;2022-07-29T07:55:31;17.90;97.00
52979;DHT22;51106;53.186;6.598;2022-07-29T07:57:54;18.20;96.70
52979;DHT22;51106;53.186;6.598;2022-07-29T07:59:59;18.00;96.10
52979;DHT22;51106;53.186;6.598;2022-07-29T08:02:01;18.00;95.90
52979;DHT22;51106;53.186;6.598;2022-07-29T08:04:03;18.50;96.10
52979;DHT22;51106;53.186;6.598;2022-07-29T08:06:06;18.00;96.00
52979;DHT22;51106;53.186;6.598;2022-07-29T08:08:08;18.00;95.50
52979;DHT22;51106;53.186;6.598;2022-07-29T08:10:10;18.00;95.30
52979;DHT22;51106;53.186;6.598;2022-07-29T08:12:12;18.60;95.20
52979;DHT22;51106;53.186;6.598;2022-07-29T08:14:14;18.10;94.90
52979;DHT22;51106;53.186;6.598;2022-07-29T08:16:16;18.10;94.60
52979;DHT22;51106;53.186;6.598;2022-07-29T08:18:18;18.10;94.40
52979;DHT22;51106;53.186;6.598;2022-07-29T08:20:20;18.10;94.00
52979;DHT22;51106;53.186;6.598;2022-07-29T08:22:23;18.20;94.10
52979;DHT22;51106;53.186;6.598;2022-07-29T08:24:25;18.20;93.80
52979;DHT22;51106;53.186;6.598;2022-07-29T08:26:45;18.20;93.60
52979;DHT22;51106;53.186;6.598;2022-07-29T08:28:47;18.20;93.50
52979;DHT22;51106;53.186;6.598;2022-07-29T08:30:52;18.30;93.60
52979;DHT22;51106;53.186;6.598;2022-07-29T08:32:54;18.40;93.60
52979;DHT22;51106;53.186;6.598;2022-07-29T08:34:59;18.50;93.50
52979;DHT22;51106;53.186;6.598;2022-07-29T08:37:02;18.50;93.10
52979;DHT22;51106;53.186;6.598;2022-07-29T08:39:04;18.60;92.90
52979;DHT22;51106;53.186;6.598;2022-07-29T08:41:07;18.50;92.70
52979;DHT22;51106;53.186;6.598;2022-07-29T08:43:09;18.40;92.80
52979;DHT22;51106;53.186;6.598;2022-07-29T08:45:14;18.40;93.00
52979;DHT22;51106;53.186;6.598;2022-07-29T08:47:16;18.40;92.90
52979;DHT22;51106;53.186;6.598;2022-07-29T08:49:19;18.40;92.90
52979;DHT22;51106;53.186;6.598;2022-07-29T08:51:21;18.40;93.00
52979;DHT22;51106;53.186;6.598;2022-07-29T08:53:26;18.40;92.80
52979;DHT22;51106;53.186;6.598;2022-07-29T08:55:29;18.40;92.70
52979;DHT22;51106;53.186;6.598;2022-07-29T08:57:33;18.50;92.80
52979;DHT22;51106;53.186;6.598;2022-07-29T08:59:40;18.50;92.70
52979;DHT22;51106;53.186;6.598;2022-07-29T09:01:44;18.60;92.30
52979;DHT22;51106;53.186;6.598;2022-07-29T09:03:48;18.70;92.20
52979;DHT22;51106;53.186;6.598;2022-07-29T09:05:51;18.70;92.10
52979;DHT22;51106;53.186;6.598;2022-07-29T09:07:54;18.80;91.80
52979;DHT22;51106;53.186;6.598;2022-07-29T09:09:57;18.80;91.50
52979;DHT22;51106;53.186;6.598;2022-07-29T09:11:59;18.80;91.20
52979;DHT22;51106;53.186;6.598;2022-07-29T09:14:02;18.90;91.10
52979;DHT22;51106;53.186;6.598;2022-07-29T09:16:05;19.00;91.20
52979;DHT22;51106;53.186;6.598;2022-07-29T09:18:10;19.00;91.00
52979;DHT22;51106;53.186;6.598;2022-07-29T09:20:31;18.90;91.00
52979;DHT22;51106;53.186;6.598;2022-07-29T09:22:52;19.20;91.00
52979;DHT22;51106;53.186;6.598;2022-07-29T09:24:55;19.00;91.00
52979;DHT22;51106;53.186;6.598;2022-07-29T09:26:57;19.10;90.90
52979;DHT22;51106;53.186;6.598;2022-07-29T09:29:17;19.10;90.90
52979;DHT22;51106;53.186;6.598;2022-07-29T09:31:32;19.10;90.40
52979;DHT22;51106;53.186;6.598;2022-07-29T09:33:36;19.10;90.10
52979;DHT22;51106;53.186;6.598;2022-07-29T09:35:42;19.00;90.40
52979;DHT22;51106;53.186;6.598;2022-07-29T09:37:57;19.00;90.60
52979;DHT22;51106;53.186;6.598;2022-07-29T09:40:13;19.00;90.70
52979;DHT22;51106;53.186;6.598;2022-07-29T09:42:27;19.00;90.60
52979;DHT22;51106;53.186;6.598;2022-07-29T09:44:43;18.80;90.00
52979;DHT22;51106;53.186;6.598;2022-07-29T09:49:11;18.80;90.50
52979;DHT22;51106;53.186;6.598;2022-07-29T09:51:18;18.90;91.00
52979;DHT22;51106;53.186;6.598;2022-07-29T09:53:29;18.90;90.90
52979;DHT22;51106;53.186;6.598;2022-07-29T09:55:48;19.00;91.00
52979;DHT22;51106;53.186;6.598;2022-07-29T09:57:52;19.00;90.70
52979;DHT22;51106;53.186;6.598;2022-07-29T10:00:00;19.00;90.80
52979;DHT22;51106;53.186;6.598;2022-07-29T10:02:12;19.10;90.80
52979;DHT22;51106;53.186;6.598;2022-07-29T10:04:25;19.10;90.60
52979;DHT22;51106;53.186;6.598;2022-07-29T10:09:11;19.20;90.50
52979;DHT22;51106;53.186;6.598;2022-07-29T10:11:17;19.30;90.50
52979;DHT22;51106;53.186;6.598;2022-07-29T10:13:19;19.30;90.40
52979;DHT22;51106;53.186;6.598;2022-07-29T10:15:23;19.30;90.20
52979;DHT22;51106;53.186;6.598;2022-07-29T10:17:25;19.40;90.00
52979;DHT22;51106;53.186;6.598;2022-07-29T10:19:31;19.40;90.00
52979;DHT22;51106;53.186;6.598;2022-07-29T10:21:33;19.40;89.80
52979;DHT22;51106;53.186;6.598;2022-07-29T10:23:38;19.50;90.30
52979;DHT22;51106;53.186;6.598;2022-07-29T10:25:48;19.50;90.40
52979;DHT22;51106;53.186;6.598;2022-07-29T10:27:51;19.50;90.20
52979;DHT22;51106;53.186;6.598;2022-07-29T10:29:53;19.50;90.30
52979;DHT22;51106;53.186;6.598;2022-07-29T10:32:16;19.60;90.30
52979;DHT22;51106;53.186;6.598;2022-07-29T10:37:37;19.60;87.90
52979;DHT22;51106;53.186;6.598;2022-07-29T10:42:40;19.50;87.50
52979;DHT22;51106;53.186;6.598;2022-07-29T10:44:43;19.50;89.10
52979;DHT22;51106;53.186;6.598;2022-07-29T10:46:46;19.50;89.30
52979;DHT22;51106;53.186;6.598;2022-07-29T10:49:15;19.50;89.00
52979;DHT22;51106;53.186;6.598;2022-07-29T10:51:18;19.60;89.00
52979;DHT22;51106;53.186;6.598;2022-07-29T10:53:25;19.70;89.30
52979;DHT22;51106;53.186;6.598;2022-07-29T10:55:48;19.80;88.60
52979;DHT22;51106;53.186;6.598;2022-07-29T11:00:28;19.90;87.60
52979;DHT22;51106;53.186;6.598;2022-07-29T11:09:18;19.80;88.30
52979;DHT22;51106;53.186;6.598;2022-07-29T11:11:38;19.90;88.70
52979;DHT22;51106;53.186;6.598;2022-07-29T11:14:02;19.80;88.80
52979;DHT22;51106;53.186;6.598;2022-07-29T11:16:05;19.90;88.50
52979;DHT22;51106;53.186;6.598;2022-07-29T11:18:09;19.80;88.30
52979;DHT22;51106;53.186;6.598;2022-07-29T11:20:38;19.80;88.80
52979;DHT22;51106;53.186;6.598;2022-07-29T11:22:43;19.90;88.60
52979;DHT22;51106;53.186;6.598;2022-07-29T11:25:14;19.90;88.90
52979;DHT22;51106;53.186;6.598;2022-07-29T11:27:21;20.00;89.80
52979;DHT22;51106;53.186;6.598;2022-07-29T11:29:29;20.10;89.60
52979;DHT22;51106;53.186;6.598;2022-07-29T11:31:42;20.20;88.60
52979;DHT22;51106;53.186;6.598;2022-07-29T11:33:45;20.30;88.70
52979;DHT22;51106;53.186;6.598;2022-07-29T11:36:14;20.40;87.80
52979;DHT22;51106;53.186;6.598;2022-07-29T11:38:25;20.50;87.30
52979;DHT22;51106;53.186;6.598;2022-07-29T11:40:29;20.70;87.30
52979;DHT22;51106;53.186;6.598;2022-07-29T11:45:09;21.10;84.40
52979;DHT22;51106;53.186;6.598;2022-07-29T11:47:37;21.30;82.90
52979;DHT22;51106;53.186;6.598;2022-07-29T11:49:44;21.50;82.60
52979;DHT22;51106;53.186;6.598;2022-07-29T11:51:52;21.60;82.40
52979;DHT22;51106;53.186;6.598;2022-07-29T11:53:55;21.70;82.00
52979;DHT22;51106;53.186;6.598;2022-07-29T11:56:08;21.90;81.70
52979;DHT22;51106;53.186;6.598;2022-07-29T11:58:11;21.90;80.70
52979;DHT22;51106;53.186;6.598;2022-07-29T12:00:48;22.00;80.70
52979;DHT22;51106;53.186;6.598;2022-07-29T12:02:44;22.00;79.20
52979;DHT22;51106;53.186;6.598;2022-07-29T12:04:54;22.00;79.50
52979;DHT22;51106;53.186;6.598;2022-07-29T12:06:57;22.00;79.20
52979;DHT22;51106;53.186;6.598;2022-07-29T12:09:09;22.00;79.00
52979;DHT22;51106;53.186;6.598;2022-07-29T12:11:16;22.10;79.30
52979;DHT22;51106;53.186;6.598;2022-07-29T12:13:22;22.30;78.60
52979;DHT22;51106;53.186;6.598;2022-07-29T12:15:39;22.20;76.80
52979;DHT22;51106;53.186;6.598;2022-07-29T12:17:48;22.30;76.60
52979;DHT22;51106;53.186;6.598;2022-07-29T12:19:50;22.40;76.60
52979;DHT22;51106;53.186;6.598;2022-07-29T12:21:55;22.50;76.70
52979;DHT22;51106;53.186;6.598;2022-07-29T12:24:00;22.50;75.90
52979;DHT22;51106;53.186;6.598;2022-07-29T12:26:10;22.60;75.40
52979;DHT22;51106;53.186;6.598;2022-07-29T12:28:37;22.60;73.80
52979;DHT22;51106;53.186;6.598;2022-07-29T12:30:43;22.70;74.00
52979;DHT22;51106;53.186;6.598;2022-07-29T12:32:52;22.70;73.30
52979;DHT22;51106;53.186;6.598;2022-07-29T12:34:54;22.70;73.60
52979;DHT22;51106;53.186;6.598;2022-07-29T12:36:56;22.80;73.50
52979;DHT22;51106;53.186;6.598;2022-07-29T12:38:59;22.80;72.20
52979;DHT22;51106;53.186;6.598;2022-07-29T12:41:01;22.80;72.40
52979;DHT22;51106;53.186;6.598;2022-07-29T12:43:11;22.80;71.80
52979;DHT22;51106;53.186;6.598;2022-07-29T12:45:13;22.90;71.10
52979;DHT22;51106;53.186;6.598;2022-07-29T12:47:19;23.00;70.40
52979;DHT22;51106;53.186;6.598;2022-07-29T12:49:22;23.00;69.60
52979;DHT22;51106;53.186;6.598;2022-07-29T12:51:35;23.00;68.80
52979;DHT22;51106;53.186;6.598;2022-07-29T12:53:38;23.00;68.40
52979;DHT22;51106;53.186;6.598;2022-07-29T12:55:43;23.00;67.30
52979;DHT22;51106;53.186;6.598;2022-07-29T12:57:47;23.00;66.70
52979;DHT22;51106;53.186;6.598;2022-07-29T13:00:05;23.10;67.60
52979;DHT22;51106;53.186;6.598;2022-07-29T13:02:22;23.20;67.20
52979;DHT22;51106;53.186;6.598;2022-07-29T13:04:26;23.30;66.10
52979;DHT22;51106;53.186;6.598;2022-07-29T13:06:36;23.30;64.10
52979;DHT22;51106;53.186;6.598;2022-07-29T13:08:38;23.50;63.30
52979;DHT22;51106;53.186;6.598;2022-07-29T13:10:59;23.50;63.10
52979;DHT22;51106;53.186;6.598;2022-07-29T13:15:15;23.70;62.40
52979;DHT22;51106;53.186;6.598;2022-07-29T13:17:20;23.90;60.30
52979;DHT22;51106;53.186;6.598;2022-07-29T13:19:38;24.20;62.60
52979;DHT22;51106;53.186;6.598;2022-07-29T13:21:42;24.30;59.80
52979;DHT22;51106;53.186;6.598;2022-07-29T13:23:44;24.40;60.60
52979;DHT22;51106;53.186;6.598;2022-07-29T13:25:46;24.60;59.50
52979;DHT22;51106;53.186;6.598;2022-07-29T13:27:48;24.70;59.20
52979;DHT22;51106;53.186;6.598;2022-07-29T13:29:50;24.90;59.40
52979;DHT22;51106;53.186;6.598;2022-07-29T13:31:58;25.10;58.50
52979;DHT22;51106;53.186;6.598;2022-07-29T13:34:00;25.10;58.40
52979;DHT22;51106;53.186;6.598;2022-07-29T13:36:03;25.20;58.10
52979;DHT22;51106;53.186;6.598;2022-07-29T13:38:05;25.20;56.90
52979;DHT22;51106;53.186;6.598;2022-07-29T13:40:07;25.20;55.70
52979;DHT22;51106;53.186;6.598;2022-07-29T13:42:10;25.30;56.40
52979;DHT22;51106;53.186;6.598;2022-07-29T13:44:15;25.30;56.90
52979;DHT22;51106;53.186;6.598;2022-07-29T13:46:17;25.20;56.20
52979;DHT22;51106;53.186;6.598;2022-07-29T13:48:19;25.20;55.10
52979;DHT22;51106;53.186;6.598;2022-07-29T13:50:24;25.20;55.70